Brecksville, Ohio
Current Conditions -  °F | °C
As of 9:53 AM on Tuesday 21 Oct 2014 (Local Time) from KBKL Reporting Station
Overcast Overcast  
Wind Chill: 52°   Ceiling: 2800
Heat Index: 52°   Visibility: 10mi
Dew Point: 47°   Wind: 21mph
Humidity: 83%   Direction: 340°NNW
Pressure: 29.91"   Gusts: NA
Location:  41.32°N, 81.63°W
Report Text: KBKL 211353Z 34018KT 10SM SCT014 BKN028 OVC050 11/08 A2991 RMK AO2 RAB14E45 SLP128 P0001 T01110083
Loading
Personal Weather Stations






























Interactive Weather Map
Tropical Storm Tracking
New forecast layout! Learn more

10-Day Weather Forecast

Advertisements
Track Severe Weather on mobile